CheckWX is a tool to help pilots better visualize weather data.  It is not intended as a substitute for an official pre-flight weather briefing.

13:06:20 UTC

KPIT TAF
Pittsburgh International Airport
Pittsburgh, Pennsylvania, USA
KPIT 041128Z 0412/0518 34004KT P6SM BKN050 FM041500 30005KT P6SM SCT050 FM050000 VRB03KT P6SM BKN100 FM051200 VRB03KT P6SM BKN050

Apr-4@
12:00 UTC

Apr-4 @ 12:00 UTC

Apr-4@
15:00 UTC

Apr-4 @ 15:00 UTC

TAF KPIT 041128Z 0412/0518 34004KT P6SM BKN050

Expired

Wind
  • 340° at 4 KTS
Cloud Levels
  • Broken at 5,000' AGL

Apr-4@
15:00 UTC

Apr-4 @ 15:00 UTC

Apr-5@
00:00 UTC

Apr-5 @ 00:00 UTC

FM041500 30005KT P6SM SCT050

Expired

Wind
  • 300° at 5 KTS
Cloud Levels
  • Scattered at 5,000' AGL

Apr-5@
00:00 UTC

Apr-5 @ 00:00 UTC

Apr-5@
12:00 UTC

Apr-5 @ 12:00 UTC

FM050000 VRB03KT P6SM BKN100

Expired

Wind
  • Variable at 3 KTS
Cloud Levels
  • Broken at 10,000' AGL

Apr-5@
12:00 UTC

Apr-5 @ 12:00 UTC

Apr-5@
18:00 UTC

Apr-5 @ 18:00 UTC

FM051200 VRB03KT P6SM BKN050

From

From Standard forecast or significant change

Wind
  • Variable at 3 KTS
Cloud Levels
  • Broken at 5,000' AGL